Time;durP1;ratioP1;P1;durP2;ratioP2;P2;SDS_P1;SDS_P2;PMS_P1;PMS_P2;Temp;Humidity;BMP_temperature;BMP_pressure;BME280_temperature;BME280_humidity;BME280_pressure;Samples;Min_cycle;Max_cycle;Signal;HPM_P1;HPM_P2
2023/03/17 00:01:24;;;;;;;6.33;5.37;;;6.00;99.90;;;;;;4881787;29;20496;-78
2023/03/17 00:03:53;;;;;;;5.50;4.73;;;6.00;99.90;;;;;;4882106;29;20460;-78
2023/03/17 00:06:28;;;;;;;5.77;5.17;;;6.00;99.90;;;;;;4881927;29;20460;-78
2023/03/17 00:08:57;;;;;;;7.40;5.50;;;6.00;99.90;;;;;;4882589;29;20445;-78
2023/03/17 00:11:27;;;;;;;5.60;5.00;;;5.90;99.90;;;;;;4881570;29;20490;-78
2023/03/17 00:13:56;;;;;;;5.93;4.90;;;6.00;99.90;;;;;;4882917;29;20426;-78
2023/03/17 00:16:27;;;;;;;6.67;5.60;;;6.00;99.90;;;;;;4881675;29;20558;-78
2023/03/17 00:18:56;;;;;;;5.93;4.77;;;6.00;99.90;;;;;;4881620;29;20986;-77
2023/03/17 00:21:28;;;;;;;7.07;5.70;;;6.00;99.90;;;;;;4881570;29;20477;-77
2023/03/17 00:23:56;;;;;;;6.77;5.13;;;5.90;99.90;;;;;;4882096;29;20450;-79
2023/03/17 00:26:26;;;;;;;7.43;5.87;;;5.90;99.90;;;;;;4884684;29;20459;-80
2023/03/17 00:28:55;;;;;;;6.90;5.67;;;5.90;99.90;;;;;;4884994;29;20955;-80
2023/03/17 00:31:26;;;;;;;7.17;5.47;;;5.90;99.90;;;;;;4885909;29;20971;-80
2023/03/17 00:33:54;;;;;;;7.33;5.67;;;5.90;99.90;;;;;;4881432;29;20495;-78
2023/03/17 00:36:26;;;;;;;6.13;5.53;;;5.90;99.90;;;;;;4881343;29;20484;-78
2023/03/17 00:38:56;;;;;;;6.80;6.00;;;5.90;99.90;;;;;;4881427;29;20461;-78
2023/03/17 00:41:28;;;;;;;6.97;5.83;;;5.90;99.90;;;;;;4881211;29;20478;-77
2023/03/17 00:43:56;;;;;;;7.10;5.63;;;5.80;99.90;;;;;;4881147;29;20814;-77
2023/03/17 00:46:27;;;;;;;6.23;5.27;;;5.80;99.90;;;;;;4882394;29;20479;-77
2023/03/17 00:48:57;;;;;;;7.80;5.27;;;5.80;99.90;;;;;;4881059;29;20462;-78
2023/03/17 00:51:25;;;;;;;9.53;5.33;;;5.80;99.90;;;;;;4881037;29;20491;-78
2023/03/17 00:53:55;;;;;;;7.53;5.53;;;5.80;99.90;;;;;;4881468;29;20538;-78
2023/03/17 00:56:24;;;;;;;6.50;5.73;;;5.80;99.90;;;;;;4881259;29;20843;-78
2023/03/17 00:58:53;;;;;;;6.40;5.37;;;5.80;99.90;;;;;;4881007;29;20458;-78
2023/03/17 01:01:21;;;;;;;6.60;5.07;;;5.70;99.90;;;;;;4881973;29;20479;-78
2023/03/17 01:03:50;;;;;;;6.00;4.77;;;5.80;99.90;;;;;;4880842;29;20561;-78
2023/03/17 01:06:19;;;;;;;6.73;5.33;;;5.70;99.90;;;;;;4880967;29;20470;-78
2023/03/17 01:08:47;;;;;;;6.43;5.73;;;5.70;99.90;;;;;;4880701;29;20469;-78
2023/03/17 01:11:17;;;;;;;5.97;5.13;;;5.70;99.90;;;;;;4880660;29;20999;-78
2023/03/17 01:13:47;;;;;;;6.23;5.40;;;5.80;99.90;;;;;;4880728;29;20483;-78
2023/03/17 01:16:17;;;;;;;5.40;4.70;;;5.70;99.90;;;;;;4880672;29;20489;-78
2023/03/17 01:18:45;;;;;;;6.23;5.00;;;5.70;99.90;;;;;;4880643;29;20458;-78
2023/03/17 01:21:14;;;;;;;6.43;5.73;;;5.70;99.90;;;;;;4880635;29;21065;-77
2023/03/17 01:23:42;;;;;;;6.20;5.17;;;5.70;99.90;;;;;;4881450;29;20549;-78
2023/03/17 01:26:11;;;;;;;8.00;5.53;;;5.70;99.90;;;;;;4890568;29;20446;-82
2023/03/17 01:28:39;;;;;;;6.93;5.30;;;5.70;99.90;;;;;;4883690;29;20964;-79
2023/03/17 01:31:08;;;;;;;7.40;6.13;;;5.70;99.90;;;;;;4883159;29;20476;-79
2023/03/17 01:33:38;;;;;;;6.30;5.30;;;5.70;99.90;;;;;;4883448;29;20478;-79
2023/03/17 01:36:07;;;;;;;7.00;5.83;;;5.70;99.90;;;;;;4882915;29;20830;-79
2023/03/17 01:38:36;;;;;;;7.23;5.60;;;5.70;99.90;;;;;;4883025;29;20824;-78
2023/03/17 01:41:05;;;;;;;6.40;5.73;;;5.70;99.90;;;;;;4880205;29;20904;-78
2023/03/17 01:43:33;;;;;;;7.07;5.77;;;5.60;99.90;;;;;;4880129;29;20454;-78
2023/03/17 01:46:24;;;;;;;7.40;5.83;;;5.60;99.90;;;;;;4879973;29;20454;-78
2023/03/17 01:49:13;;;;;;;10.57;6.03;;;5.60;99.90;;;;;;4880099;29;20490;-78
2023/03/17 01:51:49;;;;;;;6.53;5.07;;;5.60;99.90;;;;;;4880036;29;20553;-78
2023/03/17 01:54:24;;;;;;;7.90;6.00;;;5.60;99.90;;;;;;4880155;29;20454;-78
2023/03/17 01:56:55;;;;;;;6.17;5.53;;;5.60;99.90;;;;;;4881544;29;20446;-78
2023/03/17 01:59:27;;;;;;;6.50;5.53;;;5.60;99.90;;;;;;4879999;29;20967;-77
2023/03/17 02:02:01;;;;;;;6.40;5.57;;;5.60;99.90;;;;;;4879829;29;20463;-77
2023/03/17 02:04:31;;;;;;;7.40;6.00;;;5.60;99.90;;;;;;4880835;29;20526;-76
2023/03/17 02:07:02;;;;;;;6.37;5.70;;;5.60;99.90;;;;;;4879787;29;20465;-77
2023/03/17 02:09:32;;;;;;;6.03;5.43;;;5.60;99.90;;;;;;4879653;29;20455;-76
2023/03/17 02:12:02;;;;;;;7.70;5.60;;;5.60;99.90;;;;;;4879753;29;20470;-77
2023/03/17 02:14:31;;;;;;;6.20;5.60;;;5.60;99.90;;;;;;4879592;29;20497;-76
2023/03/17 02:16:59;;;;;;;6.50;5.10;;;5.60;99.90;;;;;;4879545;29;20475;-76
2023/03/17 02:19:28;;;;;;;6.97;5.97;;;5.60;99.90;;;;;;4879467;29;20459;-77
2023/03/17 02:21:59;;;;;;;7.00;6.00;;;5.60;99.90;;;;;;4879550;29;20468;-77
2023/03/17 02:24:33;;;;;;;7.17;5.90;;;5.60;99.90;;;;;;4879517;29;20940;-77
2023/03/17 02:27:05;;;;;;;6.33;5.73;;;5.60;99.90;;;;;;4879889;29;21026;-76
2023/03/17 02:29:36;;;;;;;7.50;6.03;;;5.60;99.90;;;;;;4879396;29;20438;-76
2023/03/17 02:32:05;;;;;;;7.30;5.60;;;5.60;99.90;;;;;;4879485;29;20486;-76
2023/03/17 02:34:34;;;;;;;6.10;4.27;;;5.60;99.90;;;;;;4879423;29;20466;-76
2023/03/17 02:37:06;;;;;;;6.30;5.50;;;5.60;99.90;;;;;;4879385;29;21035;-77
2023/03/17 02:39:35;;;;;;;6.40;5.33;;;5.50;99.90;;;;;;4879015;29;20479;-77
2023/03/17 02:42:04;;;;;;;7.30;5.70;;;5.50;99.90;;;;;;4879191;29;20473;-76
2023/03/17 02:44:34;;;;;;;7.20;5.97;;;5.60;99.90;;;;;;4879341;29;20831;-77
2023/03/17 02:47:03;;;;;;;5.70;4.80;;;5.50;99.90;;;;;;4879083;29;20454;-77
2023/03/17 02:49:32;;;;;;;8.40;5.53;;;5.50;99.90;;;;;;4878971;29;20560;-77
2023/03/17 02:52:01;;;;;;;7.87;5.97;;;5.50;99.90;;;;;;4880165;29;20450;-76
2023/03/17 02:54:31;;;;;;;6.23;5.40;;;5.50;99.90;;;;;;4878941;29;20990;-77
2023/03/17 02:56:59;;;;;;;7.33;6.10;;;5.50;99.90;;;;;;4878916;29;20455;-76
2023/03/17 02:59:27;;;;;;;7.30;5.50;;;5.50;99.90;;;;;;4879918;29;20438;-77
2023/03/17 03:01:56;;;;;;;5.90;5.20;;;5.50;99.90;;;;;;4878648;29;20522;-77
2023/03/17 03:04:25;;;;;;;6.37;5.30;;;5.50;99.90;;;;;;4878744;29;20454;-76
2023/03/17 03:06:53;;;;;;;7.50;6.30;;;5.40;99.90;;;;;;4878754;29;20451;-77
2023/03/17 03:09:23;;;;;;;6.97;6.27;;;5.40;99.90;;;;;;4878560;29;20814;-77
2023/03/17 03:11:52;;;;;;;7.17;5.70;;;5.40;99.90;;;;;;4879907;29;20446;-76
2023/03/17 03:14:20;;;;;;;6.90;5.90;;;5.40;99.90;;;;;;4878490;29;20506;-76
2023/03/17 03:16:49;;;;;;;7.07;5.83;;;5.40;99.90;;;;;;4877887;29;20453;-77
2023/03/17 03:19:17;;;;;;;6.60;5.90;;;5.30;99.90;;;;;;4878441;29;20967;-76
2023/03/17 03:21:46;;;;;;;7.80;6.10;;;5.30;99.90;;;;;;4878519;29;20458;-77
2023/03/17 03:24:14;;;;;;;8.10;5.73;;;5.30;99.90;;;;;;4878618;29;20545;-77
2023/03/17 03:26:42;;;;;;;7.23;6.53;;;5.30;99.90;;;;;;4878543;29;20450;-77
2023/03/17 03:29:12;;;;;;;8.57;5.80;;;5.30;99.90;;;;;;4878830;29;20461;-77
2023/03/17 03:31:41;;;;;;;7.30;5.83;;;5.30;99.90;;;;;;4880203;29;20540;-77
2023/03/17 03:34:09;;;;;;;7.00;5.83;;;5.30;99.90;;;;;;4878340;29;20484;-76
2023/03/17 03:36:37;;;;;;;7.10;5.70;;;5.20;99.90;;;;;;4878394;29;20454;-77
2023/03/17 03:39:06;;;;;;;7.00;5.77;;;5.20;99.90;;;;;;4878436;29;20469;-77
2023/03/17 03:41:35;;;;;;;6.60;5.47;;;5.20;99.90;;;;;;4878369;29;20481;-77
2023/03/17 03:44:03;;;;;;;8.57;5.93;;;5.10;99.90;;;;;;4878375;29;20546;-76
2023/03/17 03:46:33;;;;;;;7.20;6.00;;;5.10;99.90;;;;;;4878430;29;20457;-77
2023/03/17 03:49:01;;;;;;;7.07;5.60;;;5.10;99.90;;;;;;4879529;29;20944;-77
2023/03/17 03:51:29;;;;;;;6.03;5.40;;;5.10;99.90;;;;;;4878206;29;20485;-76
2023/03/17 03:53:57;;;;;;;7.73;6.10;;;5.10;99.90;;;;;;4878223;29;20478;-77
2023/03/17 03:56:25;;;;;;;7.80;6.10;;;5.00;99.90;;;;;;4878193;29;20476;-76
2023/03/17 03:58:55;;;;;;;6.80;5.37;;;5.00;99.90;;;;;;4878326;29;20485;-77
2023/03/17 04:01:23;;;;;;;7.33;6.43;;;5.00;99.90;;;;;;4878138;29;20485;-77
2023/03/17 04:03:53;;;;;;;7.23;6.47;;;5.00;99.90;;;;;;4878395;29;20458;-77
2023/03/17 04:06:21;;;;;;;7.43;6.00;;;4.90;99.90;;;;;;4878590;29;20809;-77
2023/03/17 04:08:49;;;;;;;7.80;5.60;;;4.90;99.90;;;;;;4878159;29;20454;-77
2023/03/17 04:11:17;;;;;;;6.87;5.33;;;4.90;99.90;;;;;;4879263;29;20967;-77
2023/03/17 04:13:45;;;;;;;6.70;5.87;;;4.90;99.90;;;;;;4878098;29;21003;-76
2023/03/17 04:16:13;;;;;;;8.23;6.73;;;4.80;99.90;;;;;;4878445;29;20442;-76
2023/03/17 04:18:41;;;;;;;9.40;8.10;;;4.80;99.90;;;;;;4879559;29;20536;-76
2023/03/17 04:21:12;;;;;;;7.60;6.63;;;4.80;99.90;;;;;;4879212;29;20469;-76
2023/03/17 04:23:40;;;;;;;7.97;7.17;;;4.80;99.90;;;;;;4878154;29;20473;-76
2023/03/17 04:26:09;;;;;;;9.27;7.33;;;4.70;99.90;;;;;;4877943;29;20461;-76
2023/03/17 04:28:37;;;;;;;9.47;7.23;;;4.70;99.90;;;;;;4880925;29;20955;-77
2023/03/17 04:31:06;;;;;;;9.57;6.73;;;4.70;99.90;;;;;;4881328;29;20483;-77
2023/03/17 04:33:34;;;;;;;7.50;5.90;;;4.70;99.90;;;;;;4881281;29;20560;-76
2023/03/17 04:36:02;;;;;;;6.07;5.40;;;4.70;99.90;;;;;;4881327;29;20826;-77
2023/03/17 04:38:32;;;;;;;8.30;6.43;;;4.60;99.90;;;;;;4881181;29;20963;-77
2023/03/17 04:41:01;;;;;;;6.60;5.90;;;4.60;99.90;;;;;;4881249;29;20568;-76
2023/03/17 04:43:29;;;;;;;8.07;5.97;;;4.60;99.90;;;;;;4881122;29;21011;-77
2023/03/17 04:45:57;;;;;;;8.23;6.50;;;4.60;99.90;;;;;;4881198;29;20532;-77
2023/03/17 04:48:25;;;;;;;7.27;6.10;;;4.60;99.90;;;;;;4881230;29;20529;-77
2023/03/17 04:50:54;;;;;;;8.30;6.53;;;4.60;99.90;;;;;;4881107;29;21034;-76
2023/03/17 04:53:22;;;;;;;9.03;6.30;;;4.60;99.90;;;;;;4880957;29;20497;-76
2023/03/17 04:55:51;;;;;;;6.70;5.70;;;4.60;99.90;;;;;;4881123;29;20975;-76
2023/03/17 04:58:20;;;;;;;7.17;6.40;;;4.60;99.90;;;;;;4880849;29;20462;-77
2023/03/17 05:00:58;;;;;;;8.93;6.80;;;4.60;99.90;;;;;;4881448;29;20474;-76
2023/03/17 05:03:26;;;;;;;8.10;6.07;;;4.60;99.90;;;;;;4882858;29;20568;-76
2023/03/17 05:05:56;;;;;;;7.00;5.87;;;4.60;99.90;;;;;;4882260;29;20533;-76
2023/03/17 05:08:25;;;;;;;7.63;6.63;;;4.50;99.90;;;;;;4880824;29;20469;-76
2023/03/17 05:10:54;;;;;;;6.67;5.97;;;4.50;99.90;;;;;;4880777;29;20526;-76
2023/03/17 05:13:23;;;;;;;7.60;6.73;;;4.50;99.90;;;;;;4880651;29;20461;-77
2023/03/17 05:15:54;;;;;;;7.70;6.70;;;4.50;99.90;;;;;;4880792;29;20470;-76
2023/03/17 05:18:24;;;;;;;7.60;6.20;;;4.50;99.90;;;;;;4880588;29;20451;-76
2023/03/17 05:20:53;;;;;;;7.70;5.93;;;4.50;99.90;;;;;;4880408;29;20489;-76
2023/03/17 05:23:22;;;;;;;7.43;6.70;;;4.50;99.90;;;;;;4880462;29;20964;-77
2023/03/17 05:25:50;;;;;;;7.50;6.33;;;4.50;99.90;;;;;;4880531;29;20505;-77
2023/03/17 05:28:20;;;;;;;8.07;6.30;;;4.50;99.90;;;;;;4880389;29;20466;-76
2023/03/17 05:30:49;;;;;;;8.30;6.10;;;4.50;99.90;;;;;;4880355;29;20847;-76
2023/03/17 05:33:17;;;;;;;8.10;6.30;;;4.50;99.90;;;;;;4881622;29;20431;-76
2023/03/17 05:35:46;;;;;;;8.00;6.87;;;4.50;99.90;;;;;;4880104;29;20474;-77
2023/03/17 05:38:15;;;;;;;7.40;6.40;;;4.50;99.90;;;;;;4880225;29;20454;-76
2023/03/17 05:40:44;;;;;;;7.97;6.30;;;4.50;99.90;;;;;;4880216;29;20573;-77
2023/03/17 05:43:12;;;;;;;7.80;6.97;;;4.50;99.90;;;;;;4881479;29;20454;-78
2023/03/17 05:45:42;;;;;;;10.10;8.63;;;4.50;99.90;;;;;;4881254;29;20468;-77
2023/03/17 05:48:11;;;;;;;11.23;10.03;;;4.60;99.90;;;;;;4881167;29;20452;-76
2023/03/17 05:50:40;;;;;;;8.33;7.00;;;4.50;99.90;;;;;;4881061;29;20477;-76
2023/03/17 05:53:09;;;;;;;7.83;6.50;;;4.60;99.90;;;;;;4879900;29;20461;-77
2023/03/17 05:55:37;;;;;;;12.93;8.30;;;4.60;99.90;;;;;;4880281;29;20481;-77
2023/03/17 05:58:06;;;;;;;9.20;7.47;;;4.60;99.90;;;;;;4881495;29;20461;-79
2023/03/17 06:00:35;;;;;;;8.80;7.70;;;4.60;99.90;;;;;;4882409;29;20501;-79
2023/03/17 06:03:08;;;;;;;7.77;6.90;;;4.60;99.90;;;;;;4881635;29;20967;-77
2023/03/17 06:05:37;;;;;;;9.03;8.00;;;4.60;99.90;;;;;;4881270;29;20427;-78
2023/03/17 06:08:06;;;;;;;10.63;9.60;;;4.60;99.90;;;;;;4880324;29;20476;-79
2023/03/17 06:10:37;;;;;;;8.20;6.70;;;4.60;99.90;;;;;;4882695;29;20485;-79
2023/03/17 06:13:05;;;;;;;9.00;8.00;;;4.60;99.90;;;;;;4882320;29;20462;-80
2023/03/17 06:15:35;;;;;;;11.23;9.17;;;4.70;99.90;;;;;;4882252;29;20474;-79
2023/03/17 06:18:05;;;;;;;8.70;7.80;;;4.70;99.90;;;;;;4883249;29;20470;-80
2023/03/17 06:20:34;;;;;;;7.30;6.53;;;4.70;99.90;;;;;;4881851;29;20872;-79
2023/03/17 06:23:02;;;;;;;8.27;6.80;;;4.80;99.90;;;;;;4881854;29;20957;-79
2023/03/17 06:25:34;;;;;;;10.43;9.17;;;4.80;99.90;;;;;;4882232;29;20517;-79
2023/03/17 06:28:04;;;;;;;11.70;9.60;;;4.80;99.90;;;;;;4880507;29;20454;-79
2023/03/17 06:30:33;;;;;;;8.80;7.90;;;4.80;99.90;;;;;;4879655;29;20853;-78
2023/03/17 06:33:02;;;;;;;7.53;6.70;;;4.90;99.90;;;;;;4879620;29;20465;-78
2023/03/17 06:35:32;;;;;;;7.50;6.60;;;5.00;99.90;;;;;;4879259;29;20474;-79
2023/03/17 06:38:02;;;;;;;8.10;7.30;;;5.10;99.90;;;;;;4879626;29;20498;-79
2023/03/17 06:40:31;;;;;;;8.90;6.90;;;5.20;99.90;;;;;;4879629;29;20567;-78
2023/03/17 06:43:00;;;;;;;10.33;9.10;;;5.40;99.90;;;;;;4881012;29;20438;-79
2023/03/17 06:45:28;;;;;;;8.73;7.70;;;5.50;99.90;;;;;;4879463;29;20541;-79
2023/03/17 06:47:56;;;;;;;8.23;7.10;;;5.60;99.90;;;;;;4879728;29;20458;-79
2023/03/17 06:50:25;;;;;;;7.87;6.40;;;5.70;99.90;;;;;;4879462;29;20482;-79
2023/03/17 06:52:55;;;;;;;8.60;7.70;;;5.70;99.90;;;;;;4878582;29;20451;-79
2023/03/17 06:55:24;;;;;;;9.40;7.00;;;5.80;99.90;;;;;;4880466;29;20482;-81
2023/03/17 06:57:59;;;;;;;8.00;7.20;;;5.80;99.90;;;;;;4882794;29;20454;-80
2023/03/17 07:00:27;;;;;;;8.00;7.20;;;5.90;99.90;;;;;;4882214;29;20529;-80
2023/03/17 07:02:55;;;;;;;8.80;7.80;;;5.90;99.90;;;;;;4882850;29;20593;-80
2023/03/17 07:05:23;;;;;;;8.80;7.87;;;6.00;99.90;;;;;;4882701;29;20462;-80
2023/03/17 07:07:52;;;;;;;7.60;6.63;;;6.10;99.90;;;;;;4882671;29;20455;-80
2023/03/17 07:10:22;;;;;;;7.50;6.80;;;6.20;99.90;;;;;;4882562;29;20479;-81
2023/03/17 07:12:50;;;;;;;11.23;9.80;;;6.20;99.90;;;;;;4882793;29;20475;-80
2023/03/17 07:15:19;;;;;;;7.47;6.67;;;6.20;99.90;;;;;;4881925;29;20611;-80
2023/03/17 07:17:47;;;;;;;9.27;7.63;;;6.30;99.90;;;;;;4882284;29;20537;-81
2023/03/17 07:20:16;;;;;;;7.07;6.37;;;6.40;99.90;;;;;;4882418;29;20486;-80
2023/03/17 07:22:45;;;;;;;9.33;7.30;;;6.50;99.90;;;;;;4882459;29;20488;-80
2023/03/17 07:25:14;;;;;;;8.40;7.23;;;6.50;99.90;;;;;;4882136;29;20573;-80
2023/03/17 07:30:27;;;;;;;7.17;6.47;;;6.60;99.90;;;;;;4860510;29;20517;-78
2023/03/17 07:32:57;;;;;;;7.77;6.80;;;6.60;99.90;;;;;;4860160;29;20540;-77
2023/03/17 07:35:26;;;;;;;8.80;7.80;;;6.70;99.90;;;;;;4859913;29;20487;-78
2023/03/17 07:37:54;;;;;;;8.03;7.10;;;6.80;99.90;;;;;;4859963;29;20932;-78
2023/03/17 07:40:23;;;;;;;7.60;6.73;;;6.90;99.90;;;;;;4859931;29;20484;-78
2023/03/17 07:42:51;;;;;;;8.13;6.67;;;6.90;99.90;;;;;;4859949;29;20459;-78
2023/03/17 07:45:19;;;;;;;8.20;6.93;;;7.00;99.90;;;;;;4875264;29;20447;-77
2023/03/17 07:47:49;;;;;;;7.40;6.47;;;7.10;99.90;;;;;;4860053;29;20533;-78
2023/03/17 07:50:17;;;;;;;7.13;6.43;;;7.20;99.90;;;;;;4875401;29;21018;-78
2023/03/17 07:52:46;;;;;;;7.40;6.60;;;7.30;99.90;;;;;;4859890;29;20458;-77
2023/03/17 07:55:15;;;;;;;7.27;6.40;;;7.40;99.90;;;;;;4859745;29;20473;-78
2023/03/17 07:57:43;;;;;;;8.60;6.70;;;7.50;99.90;;;;;;4859820;29;20455;-78
2023/03/17 08:00:16;;;;;;;6.03;5.43;;;7.60;99.90;;;;;;4861074;29;20482;-78
2023/03/17 08:02:44;;;;;;;7.70;5.93;;;7.70;99.90;;;;;;4860061;29;21046;-77
2023/03/17 08:05:33;;;;;;;7.10;5.93;;;7.80;99.90;;;;;;4864041;29;20455;-79
2023/03/17 08:08:34;;;;;;;5.77;5.17;;;8.00;99.90;;;;;;4863887;29;20490;-78
2023/03/17 08:11:04;;;;;;;6.67;5.97;;;8.20;99.90;;;;;;4861664;29;20894;-79
2023/03/17 08:13:38;;;;;;;8.90;6.20;;;8.40;99.90;;;;;;4866892;29;20968;-79
2023/03/17 08:16:07;;;;;;;6.80;5.53;;;8.50;99.90;;;;;;4863341;29;20531;-78
2023/03/17 08:18:36;;;;;;;6.40;5.53;;;8.70;99.90;;;;;;4863295;29;20454;-78
2023/03/17 08:21:06;;;;;;;6.90;6.00;;;8.90;99.90;;;;;;4863854;29;20479;-78
2023/03/17 08:23:34;;;;;;;6.43;5.27;;;9.10;99.90;;;;;;4863751;29;20978;-77
2023/03/17 08:26:03;;;;;;;7.23;5.20;;;9.20;99.90;;;;;;4863363;29;20829;-78
2023/03/17 08:28:32;;;;;;;5.83;5.17;;;9.40;99.90;;;;;;4863036;29;20462;-78
2023/03/17 08:31:08;;;;;;;7.80;5.57;;;9.60;99.90;;;;;;4863074;29;20994;-78
2023/03/17 08:33:41;;;;;;;8.10;5.27;;;9.70;99.90;;;;;;4864679;29;20913;-78
2023/03/17 08:36:11;;;;;;;5.50;4.67;;;9.80;99.90;;;;;;4863341;29;20485;-78
2023/03/17 08:38:41;;;;;;;7.13;5.60;;;9.90;99.90;;;;;;4864590;29;20462;-78
2023/03/17 08:41:11;;;;;;;7.03;5.27;;;10.00;99.90;;;;;;4863220;29;20478;-78
2023/03/17 08:43:40;;;;;;;5.70;5.00;;;10.20;99.90;;;;;;4864548;29;20446;-78
2023/03/17 08:46:14;;;;;;;8.80;5.23;;;10.30;99.90;;;;;;4862946;29;20458;-78
2023/03/17 08:48:44;;;;;;;6.33;4.90;;;10.50;99.90;;;;;;4862936;29;20439;-78
2023/03/17 08:51:14;;;;;;;7.90;5.40;;;10.60;99.90;;;;;;4862932;29;20485;-78
2023/03/17 08:53:46;;;;;;;8.37;5.20;;;10.70;99.90;;;;;;4864200;29;20786;-78
2023/03/17 08:56:15;;;;;;;6.50;4.80;;;10.90;99.90;;;;;;4862629;29;20992;-78
2023/03/17 08:58:44;;;;;;;5.47;4.87;;;11.00;99.90;;;;;;4862767;29;20457;-78
2023/03/17 09:01:13;;;;;;;5.30;4.70;;;11.20;99.90;;;;;;4863806;29;20471;-78
2023/03/17 09:03:42;;;;;;;6.73;5.90;;;11.30;99.90;;;;;;4862549;29;20495;-78
2023/03/17 09:06:12;;;;;;;7.33;5.50;;;11.30;99.90;;;;;;4862825;29;20455;-78
2023/03/17 09:08:46;;;;;;;8.23;4.93;;;11.40;99.90;;;;;;4862764;29;20447;-78
2023/03/17 09:11:16;;;;;;;6.33;5.00;;;11.50;99.90;;;;;;4878124;29;21004;-78
2023/03/17 09:13:46;;;;;;;6.23;4.67;;;11.60;99.90;;;;;;4862223;29;20455;-78
2023/03/17 09:16:14;;;;;;;6.20;5.00;;;11.70;99.90;;;;;;4861722;29;20479;-78
2023/03/17 09:18:43;;;;;;;5.60;4.80;;;11.70;99.90;;;;;;4862086;29;20554;-77
2023/03/17 09:21:13;;;;;;;6.87;5.50;;;11.70;99.90;;;;;;4862031;29;21012;-78
2023/03/17 09:23:43;;;;;;;7.30;4.70;;;11.70;99.90;;;;;;4863234;29;20453;-78
2023/03/17 09:26:12;;;;;;;7.30;4.90;;;11.80;99.90;;;;;;4862213;29;20459;-78
2023/03/17 09:28:40;;;;;;;5.90;5.30;;;11.90;99.90;;;;;;4861831;29;20834;-78
2023/03/17 09:31:10;;;;;;;6.70;4.80;;;12.00;99.90;;;;;;4862005;29;20475;-78
2023/03/17 09:33:39;;;;;;;6.00;4.67;;;12.10;99.90;;;;;;4862034;29;20455;-78
2023/03/17 09:36:08;;;;;;;7.00;4.87;;;12.10;99.90;;;;;;4861849;29;20906;-78
2023/03/17 09:38:37;;;;;;;6.77;4.57;;;12.20;99.90;;;;;;4862125;29;20557;-78
2023/03/17 09:41:51;;;;;;;5.93;4.73;;;12.30;99.90;;;;;;4861946;29;20486;-78
2023/03/17 09:44:30;;;;;;;5.90;4.93;;;12.40;99.90;;;;;;4843338;29;20456;-78
2023/03/17 09:47:06;;;;;;;5.83;4.47;;;12.40;99.90;;;;;;4828641;29;20452;-78
2023/03/17 09:49:43;;;;;;;5.20;4.60;;;12.50;99.90;;;;;;4846794;29;20446;-78
2023/03/17 09:52:13;;;;;;;7.30;4.70;;;12.50;99.90;;;;;;4862909;29;20439;-78
2023/03/17 09:54:42;;;;;;;6.10;4.50;;;12.60;99.90;;;;;;4877402;29;20522;-78
2023/03/17 09:57:16;;;;;;;5.70;4.43;;;12.70;99.90;;;;;;4861510;29;20503;-78
2023/03/17 09:59:47;;;;;;;5.57;4.50;;;12.80;99.90;;;;;;4861443;29;20506;-78
2023/03/17 10:02:21;;;;;;;5.10;4.30;;;12.80;99.90;;;;;;4861353;29;20451;-78
2023/03/17 10:04:50;;;;;;;7.33;4.60;;;12.90;99.90;;;;;;4862816;29;20426;-78
2023/03/17 10:07:25;;;;;;;4.87;3.83;;;13.00;99.90;;;;;;4861214;29;20451;-78
2023/03/17 10:10:01;;;;;;;5.43;4.23;;;13.00;99.90;;;;;;4861199;29;20482;-78
2023/03/17 10:12:45;;;;;;;6.00;4.30;;;13.10;99.90;;;;;;4861221;29;20522;-78
2023/03/17 10:15:21;;;;;;;7.93;4.97;;;13.10;99.90;;;;;;4861093;29;20479;-77
2023/03/17 10:17:52;;;;;;;6.40;4.07;;;13.20;99.90;;;;;;4860929;29;20477;-77
2023/03/17 10:20:25;;;;;;;7.20;4.80;;;13.20;99.90;;;;;;4861042;29;20513;-78
2023/03/17 10:22:57;;;;;;;7.47;5.20;;;13.20;99.90;;;;;;4862100;29;20439;-78
2023/03/17 10:25:30;;;;;;;7.67;4.53;;;13.30;99.90;;;;;;4860934;29;20507;-78
2023/03/17 10:28:06;;;;;;;6.90;4.70;;;13.30;99.90;;;;;;4861130;29;20878;-78
2023/03/17 10:30:37;;;;;;;6.00;4.40;;;13.30;99.90;;;;;;4860678;29;20836;-77
2023/03/17 10:33:06;;;;;;;8.80;5.50;;;13.30;99.90;;;;;;4860749;29;20447;-78
2023/03/17 10:35:36;;;;;;;5.03;4.13;;;13.40;99.90;;;;;;4876132;29;20455;-77
2023/03/17 10:38:15;;;;;;;5.80;4.30;;;13.40;99.90;;;;;;4862140;29;20475;-77
2023/03/17 10:40:47;;;;;;;7.23;4.73;;;13.50;99.90;;;;;;4860522;29;20515;-77
2023/03/17 10:43:22;;;;;;;5.27;4.37;;;13.50;99.90;;;;;;4860609;29;20456;-77
2023/03/17 10:46:00;;;;;;;5.53;4.80;;;13.50;99.90;;;;;;4860527;29;20455;-77
2023/03/17 10:48:30;;;;;;;6.73;4.60;;;13.50;99.90;;;;;;4860482;29;20530;-78
2023/03/17 10:50:59;;;;;;;6.03;4.50;;;13.60;99.90;;;;;;4860277;29;20471;-77
2023/03/17 10:53:28;;;;;;;6.13;4.57;;;13.60;99.90;;;;;;4860367;29;20523;-77
2023/03/17 10:56:00;;;;;;;5.90;4.80;;;13.60;99.90;;;;;;4860339;29;20459;-77
2023/03/17 10:58:41;;;;;;;6.83;4.40;;;13.70;99.90;;;;;;4860288;29;20471;-77
2023/03/17 11:01:20;;;;;;;5.70;4.87;;;13.70;99.90;;;;;;4860302;29;20499;-77
2023/03/17 11:03:49;;;;;;;5.90;4.63;;;13.80;99.90;;;;;;4860343;29;20885;-77
2023/03/17 11:06:20;;;;;;;5.50;4.30;;;13.80;99.90;;;;;;4860170;29;20459;-77
2023/03/17 11:08:50;;;;;;;6.13;4.60;;;13.80;99.90;;;;;;4861102;29;20918;-77
2023/03/17 11:11:25;;;;;;;6.70;4.43;;;13.90;99.90;;;;;;4860119;29;21078;-77
2023/03/17 11:14:03;;;;;;;5.83;4.97;;;13.90;99.90;;;;;;4860229;29;20450;-77
2023/03/17 11:16:36;;;;;;;6.30;4.97;;;14.00;99.90;;;;;;4860151;29;20451;-78
2023/03/17 11:19:08;;;;;;;6.17;5.57;;;14.00;99.90;;;;;;4861392;29;20428;-78
2023/03/17 11:21:47;;;;;;;8.47;4.83;;;14.10;99.90;;;;;;4860088;29;20482;-78
2023/03/17 11:24:20;;;;;;;6.70;4.83;;;14.10;99.90;;;;;;4859999;29;20462;-77
2023/03/17 11:26:56;;;;;;;6.00;4.30;;;14.20;99.90;;;;;;4860303;29;20455;-78
2023/03/17 11:29:46;;;;;;;7.20;4.67;;;14.20;99.90;;;;;;4859902;29;20470;-77
2023/03/17 11:32:25;;;;;;;6.73;5.30;;;14.20;99.90;;;;;;4860210;29;20809;-77
2023/03/17 11:35:27;;;;;;;6.63;5.40;;;14.30;99.90;;;;;;4859855;29;20453;-77
2023/03/17 11:38:23;;;;;;;5.70;4.87;;;14.40;99.90;;;;;;4863302;29;20462;-77
2023/03/17 11:41:17;;;;;;;7.10;5.20;;;14.40;99.90;;;;;;4880348;29;20482;-77
2023/03/17 11:44:00;;;;;;;7.13;5.00;;;14.50;99.90;;;;;;4866328;29;20868;-77
2023/03/17 11:46:34;;;;;;;5.87;4.70;;;14.60;99.90;;;;;;4866614;29;20455;-77
2023/03/17 11:49:10;;;;;;;6.50;4.77;;;14.60;99.90;;;;;;4868774;29;20453;-78
2023/03/17 11:51:50;;;;;;;6.80;5.20;;;14.70;99.90;;;;;;4868848;29;20889;-78
2023/03/17 11:54:26;;;;;;;6.20;5.53;;;14.70;99.90;;;;;;4868356;29;20446;-78
2023/03/17 11:56:58;;;;;;;6.50;5.10;;;14.80;99.90;;;;;;4883649;29;20897;-79
2023/03/17 11:59:32;;;;;;;6.00;4.73;;;14.90;99.90;;;;;;4867299;29;20450;-78
2023/03/17 12:02:13;;;;;;;5.50;4.30;;;15.00;99.90;;;;;;4867347;29;20459;-79
2023/03/17 12:04:49;;;;;;;10.17;5.20;;;15.10;99.90;;;;;;4867326;29;20454;-78
2023/03/17 12:07:22;;;;;;;6.80;5.20;;;15.20;99.90;;;;;;4866961;29;20450;-78
2023/03/17 12:09:58;;;;;;;6.53;4.90;;;15.20;99.90;;;;;;4866989;29;20844;-78
2023/03/17 12:12:32;;;;;;;6.23;4.70;;;15.30;99.90;;;;;;4867408;29;20882;-79
2023/03/17 12:15:01;;;;;;;7.50;5.87;;;15.40;99.90;;;;;;4866853;29;20461;-78
2023/03/17 12:17:35;;;;;;;5.87;4.90;;;15.40;99.90;;;;;;4868086;29;20911;-79
2023/03/17 12:20:15;;;;;;;8.50;5.30;;;15.40;99.90;;;;;;4867220;29;20489;-78
2023/03/17 12:22:47;;;;;;;6.40;5.13;;;15.50;99.90;;;;;;4882523;29;20450;-78
2023/03/17 12:25:23;;;;;;;7.70;4.57;;;15.50;99.90;;;;;;4867259;29;20473;-78
2023/03/17 12:28:00;;;;;;;8.10;5.37;;;15.50;99.90;;;;;;4868658;29;20462;-79
2023/03/17 12:30:34;;;;;;;6.60;5.73;;;15.60;99.90;;;;;;4867870;29;20501;-79
2023/03/17 12:33:17;;;;;;;7.10;5.43;;;15.60;99.90;;;;;;4868151;29;20478;-78
2023/03/17 12:35:45;;;;;;;5.90;5.30;;;15.70;99.90;;;;;;4866913;29;20455;-78
2023/03/17 12:38:19;;;;;;;7.63;5.50;;;15.70;99.90;;;;;;4866509;29;20482;-78
2023/03/17 12:41:14;;;;;;;7.80;5.40;;;15.80;99.90;;;;;;4866679;29;20568;-79
2023/03/17 12:43:55;;;;;;;5.97;5.10;;;15.80;99.90;;;;;;4866566;29;20451;-78
2023/03/17 12:46:46;;;;;;;8.43;6.50;;;15.80;99.90;;;;;;4866503;29;20454;-78
2023/03/17 12:49:56;;;;;;;8.13;5.60;;;15.80;99.90;;;;;;4866687;29;20523;-78
2023/03/17 12:52:44;;;;;;;7.90;5.57;;;15.80;99.90;;;;;;4863127;29;20991;-78
2023/03/17 12:55:17;;;;;;;6.90;5.70;;;15.80;99.90;;;;;;4879095;29;20549;-78
2023/03/17 12:57:47;;;;;;;8.00;5.50;;;15.80;99.90;;;;;;4863432;29;20992;-78
2023/03/17 13:00:20;;;;;;;7.70;6.10;;;15.80;99.90;;;;;;4862948;29;20475;-78
2023/03/17 13:02:51;;;;;;;6.73;5.63;;;15.80;99.90;;;;;;4863065;29;20451;-78
2023/03/17 13:05:32;;;;;;;6.77;5.60;;;15.80;99.90;;;;;;4862917;29;20475;-78
2023/03/17 13:08:04;;;;;;;9.73;6.60;;;15.80;99.90;;;;;;4862837;29;20447;-78
2023/03/17 13:10:39;;;;;;;8.10;5.70;;;15.80;99.90;;;;;;4863458;29;20502;-78
2023/03/17 13:13:12;;;;;;;9.27;7.40;;;15.90;99.90;;;;;;4863209;29;20443;-78
2023/03/17 13:15:58;;;;;;;6.87;5.60;;;15.90;99.90;;;;;;4862928;29;20507;-78
2023/03/17 13:18:49;;;;;;;8.33;5.80;;;15.90;99.90;;;;;;4863260;29;20471;-79